Pagrindinis puslapis
METAR-TAF:

METAR-TAF

Oro uostai :

Amarilas, Teksasas, Jungtinės Amerikos Valstijos

platuma: 35-13-12N, ilguma: 101-43-02W, Aukštis: 1099 m

Dabartinis oras

Ataskaita buvo paskelbta 1 valandą ir 4 minutes, ne 11:53 UTC
Vėjas 11 kt iš Pietų
Temperatūra 10°C
Drėgmė 62%
Slėgis 1021 hPa
Matomumas: 16.1 km
Giedras dangus

METAR: KAMA 231153Z 18011KT 10SM CLR 10/03 A3014 RMK AO2 SLP171 T01000028 10156 20100 56005

Laikas: 07:57 (12:57 UTC)

Prognozė

Ataskaita buvo paskelbta 1 valandą ir 37 minutes, ne 11:20 UTC
Prognozė galioja nuo 23 metu 12 UTC su 24 metu 12 UTC
Vėjas 11 kt iš Pietų
Matomumas: 10 km
Mažai debesys ne aukštis 25000 ft
Nuo 23 metu 1400 UTC
Vėjas 17 kt iš Pietų su gūsio iki 27 kt
Matomumas: 10 km
Mažai debesys ne aukštis 25000 ft
Nuo 23 metu 2200 UTC
Vėjas 11 kt iš Pietų
Matomumas: 10 km
Išsisklaidę debesys ne aukštis 25000 ft

TAF: KAMA 231120Z 2312/2412 18011KT P6SM FEW250 FM231400 19017G27KT P6SM FEW250 FM232200 18011KT P6SM SCT250

Orai ataskaitas ir orų prognozės (METAR, TAF).

turimą stotys yra geltonos ir raudonos taškus žemėlapyje.

Perkelti pele per norėdami pamatyti stoties vardą.

Tada spustelėkite, norėdami matyti oro stebėjimo ir prognozės.

Norėdami pakeisti žemėlapį: spustelėkite ant žalios mygtukų su juodo kryžiaus žemyn,; žalią mygtuką su brūkšneliu, jei norite nutolinti; arba žalių rodyklių gretimoms žemėlapius.


METAR-TAF: